Latest Weather Observations for Mount Magnet Airport

IDW60801

Issued at 9:03 pm WST Monday 25 January 2021 (issued every 10 minutes, with the page automatically refreshed every 10 minutes)

About weather observations | Map of weather stations | Latest weather observations for WA | Other Formats
Station Details ID: 007600 Name: MOUNT MAGNET AERO Lat: -28.12 Lon: 117.84 Height: 407.0 m
Data from the previous 72 hours. | See also: Recent months at Mount Magnet Airport
Date/Time
WST
Temp
°C
App
Temp
°C
Dew
Point
°C
Rel
Hum
%
Delta-T
°C
Wind Press
QNH
hPa
Press
MSL
hPa
Rain since
9am
mm
Dir  Spd
km/h
Gust
km/h
Spd
kts
Gust
kts
25/09:00pm 28.0 24.4 5.0 23 12.1 SW 13 15 7 8 1007.5 1004.3 0.0
25/08:30pm 28.5 25.0 5.4 23 12.2 SW 13 15 7 8 1007.3 1004.1 0.0
25/08:00pm 29.0 25.0 5.1 22 12.7 SSW 15 20 8 11 1007.1 1003.9 0.0
25/07:30pm 29.3 24.9 4.7 21 12.9 SSW 17 20 9 11 1006.7 1003.4 0.0
25/07:00pm 30.1 25.1 4.7 20 13.4 SW 20 26 11 14 1006.6 1003.3 0.0
25/06:30pm 30.4 25.9 4.2 19 13.7 SW 17 24 9 13 1006.2 1002.9 0.0
25/06:00pm 30.5 25.3 3.5 18 14.0 SW 20 32 11 17 1006.0 1002.8 0.0
25/05:30pm 31.0 25.2 2.3 16 14.6 SW 22 30 12 16 1005.7 1002.5 0.0
25/05:00pm 30.6 26.0 3.6 18 14.1 SW 17 30 9 16 1005.7 1002.5 0.0
25/04:30pm 31.6 26.6 3.6 17 14.6 WSW 19 30 10 16 1005.6 1002.4 0.0
25/04:00pm 30.6 25.0 3.6 18 14.1 SW 22 35 12 19 1005.9 1002.7 0.0
25/03:30pm 30.6 25.6 4.4 19 13.8 SW 20 32 11 17 1006.2 1002.9 0.0
25/03:00pm 30.9 25.5 4.6 19 14.0 WSW 22 35 12 19 1006.5 1003.2 0.0
25/02:30pm 30.1 25.8 5.4 21 13.2 WSW 17 30 9 16 1006.8 1003.5 0.0
25/02:00pm 31.2 26.4 5.6 20 13.8 SSW 20 32 11 17 1007.1 1003.9 0.0
25/01:30pm 29.1 24.7 6.5 24 12.2 WSW 19 28 10 15 1007.5 1004.3 0.0
25/01:00pm 29.1 25.6 7.1 25 12.0 SW 15 24 8 13 1007.7 1004.5 0.0
25/12:30pm 27.7 23.4 7.0 27 11.2 W 19 30 10 16 1008.1 1004.9 0.0
25/12:00pm 26.5 23.3 7.0 29 10.5 WNW 13 24 7 13 1008.5 1005.3 0.0
25/11:30am 25.6 22.6 7.7 32 9.7 WSW 13 20 7 11 1009.0 1005.7 0.0
25/11:00am 25.4 22.3 8.8 35 9.2 SSW 15 22 8 12 1009.4 1006.2 0.0
25/10:30am 24.7 22.1 9.4 38 8.5 SW 13 22 7 12 1009.7 1006.5 0.0
25/10:00am 24.2 21.4 10.1 41 7.9 SSW 15 24 8 13 1009.8 1006.6 0.0
25/09:30am 22.7 20.0 10.5 46 6.8 S 15 24 8 13 1009.9 1006.7 0.0
25/09:00am 21.3 18.8 11.1 52 5.7 SSW 15 22 8 12 1010.1 1006.9 0.0
25/08:30am 20.6 18.1 11.2 55 5.3 SSW 15 22 8 12 1010.4 1007.2 0.0
25/08:00am 20.0 17.0 11.8 59 4.6 SSW 19 24 10 13 1010.6 1007.4 0.0
25/07:30am 19.9 16.9 11.9 60 4.5 SSW 19 26 10 14 1010.4 1007.2 0.0
25/07:00am 18.9 15.8 11.7 63 4.0 SW 19 26 10 14 1010.3 1007.1 0.0
25/06:30am 18.4 14.8 11.9 66 3.7 SW 22 28 12 15 1010.0 1006.8 0.0
25/06:00am 18.5 15.3 11.8 65 3.8 SSW 20 28 11 15 1009.8 1006.6 0.0
25/05:30am 18.5 15.9 10.8 61 4.2 SSW 15 20 8 11 1009.6 1006.4 0.0
25/05:00am 18.9 15.5 10.7 59 4.5 SW 19 22 10 12 1009.3 1006.0 0.0
25/04:30am 19.3 15.9 10.6 57 4.8 SSW 19 26 10 14 1009.1 1005.8 0.0
25/04:00am 19.6 16.0 10.6 56 5.0 SSW 20 26 11 14 1008.9 1005.6 0.0
25/03:30am 19.9 16.0 10.9 56 5.0 SW 22 30 12 16 1008.6 1005.4 0.0
25/03:00am 20.3 16.1 11.0 55 5.2 SSW 24 30 13 16 1008.3 1005.1 0.0
25/02:30am 20.8 17.0 11.2 54 5.4 SSW 22 33 12 18 1008.4 1005.2 0.0
25/02:00am 21.1 17.6 10.9 52 5.7 SSW 20 28 11 15 1008.3 1005.1 0.0
25/01:30am 21.5 16.4 10.6 50 6.1 SW 28 37 15 20 1008.3 1005.1 0.0
25/01:00am 22.1 17.0 10.6 48 6.4 SW 28 41 15 22 1008.1 1004.9 0.0
25/12:30am 22.6 17.1 10.7 47 6.7 SW 30 43 16 23 1008.1 1004.9 0.0
25/12:00am 23.3 17.8 10.7 45 7.1 SW 30 39 16 21 1008.2 1005.0 0.0
 
Date/Time
WST
Temp
°C
App
Temp
°C
Dew
Point
°C
Rel
Hum
%
Delta-T
°C
Wind Press
QNH
hPa
Press
MSL
hPa
Rain since
9am
mm
Dir  Spd
km/h
Gust
km/h
Spd
kts
Gust
kts
24/11:30pm 24.1 19.9 11.1 44 7.4 SW 24 33 13 18 1008.1 1004.9 0.0
24/11:00pm 24.8 20.3 11.4 43 7.7 SW 26 35 14 19 1008.0 1004.8 0.0
24/10:30pm 25.7 19.9 11.5 41 8.2 SSW 33 44 18 24 1007.8 1004.6 0.0
24/10:00pm 26.9 21.9 9.7 34 9.7 SW 26 39 14 21 1007.5 1004.3 0.0
24/09:30pm 27.8 21.7 9.6 32 10.3 SW 32 41 17 22 1007.2 1004.0 0.0
24/09:24pm 27.8 22.8 9.6 32 10.3 WSW 26 39 14 21 1007.2 1004.0 0.0
24/09:00pm 28.4 25.6 7.1 26 11.6 SSW 11 15 6 8 1007.1 1003.9 0.0
24/08:30pm 28.8 25.3 7.4 26 11.7 SSW 15 20 8 11 1006.8 1003.5 0.0
24/08:00pm 29.2 25.3 7.2 25 12.1 SW 17 24 9 13 1006.7 1003.4 0.0
24/07:30pm 29.4 24.6 7.3 25 12.1 SW 22 30 12 16 1006.3 1003.0 0.0
24/07:00pm 29.9 23.9 7.2 24 12.5 SSW 28 37 15 20 1005.9 1002.7 0.0
24/06:30pm 30.7 25.1 7.2 23 13.0 SSW 26 33 14 18 1005.6 1002.4 0.0
24/06:00pm 31.0 25.5 6.1 21 13.6 SW 24 35 13 19 1005.3 1002.1 0.0
24/05:30pm 31.2 25.0 6.3 21 13.6 SW 28 43 15 23 1005.1 1001.9 0.0
24/05:00pm 30.6 24.1 6.5 22 13.2 SW 30 44 16 24 1005.2 1002.0 0.0
24/04:30pm 31.0 25.9 7.5 23 13.0 SW 24 35 13 19 1005.1 1001.9 0.0
24/04:00pm 30.7 24.6 8.4 25 12.6 WSW 30 39 16 21 1005.5 1002.3 0.0
24/03:30pm 30.1 24.8 8.5 26 12.1 SW 26 37 14 20 1005.5 1002.3 0.0
24/03:00pm 30.3 24.2 8.1 25 12.4 WSW 30 44 16 24 1005.8 1002.6 0.0
24/02:32pm 29.4 23.9 9.0 28 11.5 WSW 28 46 15 25 1006.2 1002.9 0.0
24/02:30pm 28.4 22.4 8.7 29 11.0 WSW 30 46 16 25 1006.2 1002.9 0.0
24/02:06pm 28.8 23.1 8.5 28 11.3 WSW 28 46 15 25 1006.3 1003.0 0.0
24/02:00pm 29.8 24.0 9.3 28 11.7 WSW 30 44 16 24 1006.5 1003.2 0.0
24/01:30pm 27.8 22.7 9.1 31 10.5 WSW 26 35 14 19 1006.7 1003.4 0.0
24/01:16pm 27.5 22.0 9.3 32 10.2 WSW 28 48 15 26 1006.8 1003.5 0.0
24/01:00pm 27.7 21.9 9.5 32 10.3 WSW 30 43 16 23 1007.0 1003.7 0.0
24/12:34pm 26.5 20.6 8.9 33 9.8 W 30 48 16 26 1007.3 1004.1 0.0
24/12:30pm 26.4 20.1 8.8 33 9.8 W 32 48 17 26 1007.2 1004.0 0.0
24/12:25pm 25.9 20.3 8.8 34 9.5 W 28 48 15 26 1007.2 1004.0 0.0
24/12:00pm 26.3 20.3 8.8 33 9.7 W 30 43 16 23 1007.4 1004.2 0.0
24/11:30am 25.6 20.6 9.4 36 9.0 WSW 26 41 14 22 1007.5 1004.3 0.0
24/11:02am 26.2 20.8 9.5 35 9.4 WSW 28 46 15 25 1007.7 1004.5 0.0
24/11:00am 25.6 19.8 9.4 36 9.1 WSW 30 46 16 25 1007.7 1004.5 0.0
24/10:53am 26.6 21.2 9.5 34 9.6 W 28 46 15 25 1007.6 1004.4 0.0
24/10:30am 25.4 19.8 10.1 38 8.6 WSW 30 39 16 21 1007.7 1004.5 0.0
24/10:00am 24.9 19.5 10.8 41 8.0 WSW 30 41 16 22 1007.8 1004.6 0.0
24/09:30am 24.0 19.6 11.7 46 7.1 WSW 26 39 14 21 1007.8 1004.6 0.0
24/09:00am 23.7 19.0 12.0 48 6.8 WSW 28 35 15 19 1007.8 1004.6 0.0
24/08:30am 22.7 17.6 12.0 50 6.2 WSW 30 39 16 21 1007.8 1004.6 0.0
24/08:00am 22.3 17.2 12.0 52 5.9 WSW 30 37 16 20 1007.8 1004.6 0.0
24/07:30am 21.9 17.7 12.5 55 5.4 WSW 26 35 14 19 1007.9 1004.7 0.0
24/07:00am 21.1 17.4 12.8 59 4.8 WSW 24 30 13 16 1007.7 1004.5 0.0
24/06:30am 20.4 17.6 13.1 63 4.2 WSW 20 28 11 15 1007.5 1004.3 0.0
24/06:00am 20.3 18.1 13.3 64 4.1 WSW 17 24 9 13 1007.3 1004.1 0.0
24/05:30am 20.3 18.1 13.3 64 4.1 WSW 17 22 9 12 1007.2 1004.0 0.0
24/05:00am 20.5 18.3 13.2 63 4.3 SW 17 20 9 11 1007.1 1003.9 0.0
24/04:30am 20.7 17.9 13.2 62 4.4 SW 20 26 11 14 1006.9 1003.6 0.0
24/04:00am 20.9 16.9 13.1 61 4.5 SW 26 37 14 20 1006.9 1003.6 0.0
24/03:30am 21.3 18.7 13.7 62 4.5 SW 20 28 11 15 1006.8 1003.5 0.0
24/03:00am 21.4 17.6 13.6 61 4.6 SW 26 32 14 17 1006.6 1003.3 0.0
24/02:30am 21.7 18.6 14.4 63 4.4 SW 24 32 13 17 1006.5 1003.2 0.0
24/02:00am 21.9 18.0 14.5 63 4.4 SW 28 37 15 20 1006.3 1003.0 0.0
24/01:30am 22.0 17.9 14.9 64 4.3 SW 30 41 16 22 1005.9 1002.7 0.0
24/01:00am 22.8 18.4 15.1 62 4.7 SW 32 43 17 23 1005.8 1002.6 0.0
24/12:30am 23.9 19.9 15.1 58 5.4 WSW 30 41 16 22 1005.4 1002.2 0.0
24/12:00am 24.6 19.3 15.2 55 5.8 WSW 37 46 20 25 1005.2 1002.0 0.0
 
Date/Time
WST
Temp
°C
App
Temp
°C
Dew
Point
°C
Rel
Hum
%
Delta-T
°C
Wind Press
QNH
hPa
Press
MSL
hPa
Rain since
9am
mm
Dir  Spd
km/h
Gust
km/h
Spd
kts
Gust
kts
23/11:30pm 26.1 22.0 14.9 50 6.9 WSW 30 41 16 22 1005.0 1001.8 0.0
23/11:00pm 27.7 23.4 14.3 43 8.2 WSW 30 43 16 23 1004.7 1001.4 0.0
23/10:30pm 29.7 25.1 13.5 37 9.8 WSW 30 39 16 21 1004.3 1001.0 0.0
23/10:00pm 31.0 27.2 13.7 34 10.6 SW 26 37 14 20 1004.1 1000.8 0.0
23/09:30pm 32.0 27.3 13.2 31 11.5 WSW 30 37 16 20 1003.8 1000.5 0.0
23/09:11pm 32.7 28.3 12.9 30 12.0 WSW 28 41 15 22 1003.7 1000.4 0.0
23/09:00pm 33.6 29.7 5.2 17 15.5 W 15 19 8 10 1003.4 1000.2 0.0
23/08:30pm 34.1 30.4 4.7 16 15.9 W 13 15 7 8 1003.1 999.9 0.0
23/08:00pm 34.7 30.2 4.3 15 16.4 WSW 17 24 9 13 1002.9 999.7 0.0
23/07:30pm 35.2 30.4 4.7 15 16.5 WSW 19 26 10 14 1002.6 999.4 0.0
23/07:00pm 35.7 30.2 4.1 14 17.1 WSW 22 30 12 16 1002.4 999.1 0.0
23/06:30pm 36.3 31.1 3.5 13 17.6 WSW 20 30 11 16 1002.0 998.7 0.0
23/06:00pm 36.6 31.5 5.8 15 17.2 SW 22 32 12 17 1001.7 998.4 0.0
23/05:30pm 36.8 31.5 6.9 16 16.9 W 24 35 13 19 1001.4 998.1 0.0
23/05:00pm 37.1 33.6 7.1 16 17.1 WSW 15 26 8 14 1001.2 997.9 0.0
23/04:30pm 37.2 32.9 7.2 16 17.1 WNW 19 35 10 19 1001.2 997.9 0.0
23/04:00pm 37.2 33.0 8.1 17 16.9 WNW 20 33 11 18 1001.4 998.1 0.0
23/03:30pm 37.6 32.8 7.5 16 17.2 W 22 39 12 21 1001.6 998.3 0.0
23/03:00pm 37.4 32.8 8.2 17 17.0 W 22 37 12 20 1001.7 998.4 0.0
23/02:30pm 37.3 33.5 9.8 19 16.3 WNW 20 39 11 21 1002.1 998.8 0.0
23/02:04pm 36.2 33.1 10.4 21 15.3 WNW 17 48 9 26 1002.1 998.8 0.0
23/02:00pm 35.4 32.0 10.4 22 14.9 NW 19 39 10 21 1002.3 999.0 0.0
23/01:30pm 36.2 32.8 11.1 22 15.1 WNW 20 35 11 19 1002.4 999.1 0.0
23/01:00pm 34.9 31.7 12.0 25 13.9 W 20 33 11 18 1002.7 999.5 0.0
23/12:30pm 33.6 30.6 12.6 28 12.8 NW 20 33 11 18 1003.0 999.8 0.0
23/12:00pm 33.0 30.2 13.1 30 12.2 WNW 20 33 11 18 1003.4 1000.2 0.0
23/11:30am 32.9 31.2 13.5 30 11.9 WNW 15 30 8 16 1003.9 1000.6 0.0
23/11:00am 32.7 31.1 13.8 31 11.7 WNW 15 32 8 17 1004.1 1000.8 0.0
23/10:30am 30.9 28.5 14.5 37 10.2 NW 20 32 11 17 1004.4 1001.1 0.0
23/10:00am 30.8 29.3 15.2 38 9.8 WNW 17 26 9 14 1004.5 1001.2 0.0
23/09:30am 29.3 27.0 14.7 41 9.0 WNW 20 30 11 16 1004.7 1001.4 0.0
23/09:00am 30.0 27.4 14.9 39 9.4 NNW 22 32 12 17 1004.6 1001.3 0.0
23/08:30am 28.8 27.3 15.3 43 8.4 WNW 17 24 9 13 1004.7 1001.4 0.0
23/08:00am 27.6 26.0 14.9 45 7.8 WNW 17 22 9 12 1004.5 1001.2 0.0
23/07:30am 27.1 25.3 14.5 46 7.7 NW 17 22 9 12 1004.4 1001.1 0.0
23/07:00am 26.6 25.0 14.0 46 7.6 NW 15 20 8 11 1004.2 1000.9 0.0
23/06:30am 26.2 24.1 13.7 46 7.5 NW 17 20 9 11 1004.1 1000.8 0.0
23/06:00am 26.2 24.7 13.0 44 7.9 NW 13 17 7 9 1003.7 1000.4 0.0
23/05:30am 26.5 24.8 12.5 41 8.3 NW 13 17 7 9 1003.2 1000.0 0.0
23/05:00am 27.1 25.4 12.3 39 8.8 NW 13 17 7 9 1003.1 999.9 0.0
23/04:30am 27.5 26.4 11.9 38 9.2 NNW 9 11 5 6 1002.8 999.6 0.0
23/04:00am 27.9 26.7 11.5 36 9.6 NNW 9 11 5 6 1002.6 999.4 0.0
23/03:30am 28.2 26.4 10.9 34 10.0 N 11 13 6 7 1002.5 999.2 0.0
23/03:00am 28.7 26.3 11.3 34 10.2 NW 15 17 8 9 1002.5 999.2 0.0
23/02:30am 29.0 26.3 11.6 34 10.2 NNW 17 20 9 11 1002.3 999.0 0.0
23/02:00am 29.5 28.2 11.1 32 10.8 NW 9 13 5 7 1002.4 999.1 0.0
23/01:30am 29.8 27.0 11.3 32 10.9 W 17 22 9 12 1002.3 999.0 0.0
23/01:00am 30.3 27.9 11.3 31 11.2 WNW 15 20 8 11 1002.7 999.5 0.0
23/12:30am 31.1 28.3 11.5 30 11.6 WNW 17 22 9 12 1002.8 999.6 0.0
23/12:00am 31.8 28.3 11.0 28 12.3 W 20 28 11 15 1002.6 999.4 0.0
 
Date/Time
WST
Temp
°C
App
Temp
°C
Dew
Point
°C
Rel
Hum
%
Delta-T
°C
Wind Press
QNH
hPa
Press
MSL
hPa
Rain since
9am
mm
Dir  Spd
km/h
Gust
km/h
Spd
kts
Gust
kts
22/11:30pm 32.6 29.8 11.2 27 12.7 WSW 17 22 9 12 1002.7 999.5 0.0
22/11:00pm 33.4 31.0 11.3 26 13.2 WSW 15 24 8 13 1002.8 999.6 0.0
22/10:30pm 35.1 30.8 10.9 23 14.4 N 24 35 13 19 1003.0 999.8 0.0
22/10:00pm 35.0 31.7 10.8 23 14.5 NE 19 33 10 18 1002.6 999.4 0.0
22/09:30pm 36.9 34.1 5.0 14 17.5 NNW 9 24 5 13 1002.5 999.2 0.0

Other formats

Comma delimited format used in spreadsheet applications
http://www.bom.gov.au/fwo/IDW60801/IDW60801.94429.axf

JavaScript Object Notation format (JSON) in row-major order
http://www.bom.gov.au/fwo/IDW60801/IDW60801.94429.json

Data quality

Most of these data are generated automatically and are frequently updated. Quality checks on data are not normally performed. It is possible for incorrect values to appear. Refer to information at About Latest Weather Observations and please check the disclaimer before using these data.